sensor_id;sensor_type;location;lat;lon;timestamp;pressure;altitude;pressure_sealevel;temperature;humidity
36514;BME280;66331;46.796;9.824;2023-02-15T00:00:17;85687.98;;;-3.63;40.29
36514;BME280;66331;46.796;9.824;2023-02-15T00:02:44;85686.24;;;-3.68;40.41
36514;BME280;66331;46.796;9.824;2023-02-15T00:05:11;85681.63;;;-4.27;40.98
36514;BME280;66331;46.796;9.824;2023-02-15T00:07:43;85680.05;;;-3.49;39.75
36514;BME280;66331;46.796;9.824;2023-02-15T00:10:10;85679.44;;;-4.26;41.10
36514;BME280;66331;46.796;9.824;2023-02-15T00:12:37;85676.21;;;-3.15;39.21
36514;BME280;66331;46.796;9.824;2023-02-15T00:15:05;85672.44;;;-4.35;40.93
36514;BME280;66331;46.796;9.824;2023-02-15T00:17:31;85670.47;;;-3.65;40.61
36514;BME280;66331;46.796;9.824;2023-02-15T00:20:10;85673.33;;;-4.45;42.05
36514;BME280;66331;46.796;9.824;2023-02-15T00:22:58;85671.99;;;-4.65;42.56
36514;BME280;66331;46.796;9.824;2023-02-15T00:25:25;85672.71;;;-4.23;41.20
36514;BME280;66331;46.796;9.824;2023-02-15T00:27:52;85672.12;;;-3.68;39.59
36514;BME280;66331;46.796;9.824;2023-02-15T00:30:24;85670.89;;;-4.80;42.12
36514;BME280;66331;46.796;9.824;2023-02-15T00:32:51;85676.32;;;-5.05;41.76
36514;BME280;66331;46.796;9.824;2023-02-15T00:35:19;85673.61;;;-4.60;41.06
36514;BME280;66331;46.796;9.824;2023-02-15T00:37:45;85673.40;;;-4.47;41.02
36514;BME280;66331;46.796;9.824;2023-02-15T00:40:18;85669.02;;;-3.45;40.16
36514;BME280;66331;46.796;9.824;2023-02-15T00:42:50;85669.76;;;-4.37;41.83
36514;BME280;66331;46.796;9.824;2023-02-15T00:45:17;85667.74;;;-4.26;41.63
36514;BME280;66331;46.796;9.824;2023-02-15T00:47:46;85665.10;;;-3.87;39.86
36514;BME280;66331;46.796;9.824;2023-02-15T00:50:14;85662.76;;;-4.56;40.73
36514;BME280;66331;46.796;9.824;2023-02-15T00:52:41;85661.57;;;-4.70;40.43
36514;BME280;66331;46.796;9.824;2023-02-15T00:55:08;85656.99;;;-4.26;39.83
36514;BME280;66331;46.796;9.824;2023-02-15T00:57:35;85659.07;;;-5.01;41.69
36514;BME280;66331;46.796;9.824;2023-02-15T01:00:04;85651.95;;;-3.80;40.26
36514;BME280;66331;46.796;9.824;2023-02-15T01:02:32;85652.54;;;-4.47;40.86
36514;BME280;66331;46.796;9.824;2023-02-15T01:05:03;85648.95;;;-4.41;40.43
36514;BME280;66331;46.796;9.824;2023-02-15T01:07:31;85648.16;;;-4.77;41.16
36514;BME280;66331;46.796;9.824;2023-02-15T01:09:59;85649.56;;;-4.93;41.61
36514;BME280;66331;46.796;9.824;2023-02-15T01:12:36;85648.92;;;-5.54;42.01
36514;BME280;66331;46.796;9.824;2023-02-15T01:15:10;85646.34;;;-5.79;41.92
36514;BME280;66331;46.796;9.824;2023-02-15T01:17:55;85646.39;;;-5.41;41.87
36514;BME280;66331;46.796;9.824;2023-02-15T01:20:27;85642.40;;;-4.42;41.16
36514;BME280;66331;46.796;9.824;2023-02-15T01:23:02;85643.61;;;-5.71;42.72
36514;BME280;66331;46.796;9.824;2023-02-15T01:25:29;85638.03;;;-5.60;42.56
36514;BME280;66331;46.796;9.824;2023-02-15T01:27:58;85633.72;;;-5.37;42.52
36514;BME280;66331;46.796;9.824;2023-02-15T01:30:25;85632.02;;;-5.06;41.79
36514;BME280;66331;46.796;9.824;2023-02-15T01:32:58;85631.42;;;-5.31;41.44
36514;BME280;66331;46.796;9.824;2023-02-15T01:35:25;85631.40;;;-5.41;41.22
36514;BME280;66331;46.796;9.824;2023-02-15T01:37:52;85632.13;;;-4.73;40.65
36514;BME280;66331;46.796;9.824;2023-02-15T01:40:25;85630.92;;;-4.83;41.04
36514;BME280;66331;46.796;9.824;2023-02-15T01:42:59;85626.11;;;-4.49;40.65
36514;BME280;66331;46.796;9.824;2023-02-15T01:45:33;85626.32;;;-4.67;40.93
36514;BME280;66331;46.796;9.824;2023-02-15T01:48:15;85622.07;;;-5.52;41.55
36514;BME280;66331;46.796;9.824;2023-02-15T01:50:49;85621.73;;;-5.02;40.45
36514;BME280;66331;46.796;9.824;2023-02-15T01:53:22;85620.44;;;-4.67;40.10
36514;BME280;66331;46.796;9.824;2023-02-15T01:55:55;85616.52;;;-5.35;40.97
36514;BME280;66331;46.796;9.824;2023-02-15T01:58:26;85614.73;;;-4.10;39.81
36514;BME280;66331;46.796;9.824;2023-02-15T02:01:08;85614.54;;;-4.97;42.36
36514;BME280;66331;46.796;9.824;2023-02-15T02:03:58;85613.75;;;-5.41;41.82
36514;BME280;66331;46.796;9.824;2023-02-15T02:06:45;85613.46;;;-4.97;40.52
36514;BME280;66331;46.796;9.824;2023-02-15T02:09:14;85611.93;;;-5.32;41.09
36514;BME280;66331;46.796;9.824;2023-02-15T02:11:46;85607.72;;;-5.04;41.61
36514;BME280;66331;46.796;9.824;2023-02-15T02:14:14;85605.47;;;-4.55;40.43
36514;BME280;66331;46.796;9.824;2023-02-15T02:16:49;85603.58;;;-4.64;40.32
36514;BME280;66331;46.796;9.824;2023-02-15T02:19:39;85599.81;;;-4.88;40.24
36514;BME280;66331;46.796;9.824;2023-02-15T02:22:33;85599.76;;;-5.58;41.58
36514;BME280;66331;46.796;9.824;2023-02-15T02:25:24;85595.70;;;-5.21;41.31
36514;BME280;66331;46.796;9.824;2023-02-15T02:28:06;85598.39;;;-4.94;40.60
36514;BME280;66331;46.796;9.824;2023-02-15T02:30:54;85597.97;;;-5.69;41.33
36514;BME280;66331;46.796;9.824;2023-02-15T02:33:32;85599.93;;;-5.06;41.04
36514;BME280;66331;46.796;9.824;2023-02-15T02:36:15;85599.38;;;-5.15;40.91
36514;BME280;66331;46.796;9.824;2023-02-15T02:38:58;85600.51;;;-4.91;40.70
36514;BME280;66331;46.796;9.824;2023-02-15T02:41:35;85599.14;;;-5.45;41.37
36514;BME280;66331;46.796;9.824;2023-02-15T02:44:10;85598.18;;;-4.19;39.86
36514;BME280;66331;46.796;9.824;2023-02-15T02:46:46;85597.73;;;-5.86;41.20
36514;BME280;66331;46.796;9.824;2023-02-15T02:49:17;85594.42;;;-4.97;40.47
36514;BME280;66331;46.796;9.824;2023-02-15T02:52:00;85590.68;;;-5.06;40.55
36514;BME280;66331;46.796;9.824;2023-02-15T02:54:28;85590.50;;;-4.91;40.68
36514;BME280;66331;46.796;9.824;2023-02-15T02:56:58;85591.62;;;-5.24;41.36
36514;BME280;66331;46.796;9.824;2023-02-15T02:59:30;85591.64;;;-5.14;40.09
36514;BME280;66331;46.796;9.824;2023-02-15T03:02:07;85594.32;;;-5.45;40.65
36514;BME280;66331;46.796;9.824;2023-02-15T03:04:39;85593.76;;;-5.06;39.82
36514;BME280;66331;46.796;9.824;2023-02-15T03:07:14;85594.08;;;-4.54;39.32
36514;BME280;66331;46.796;9.824;2023-02-15T03:09:45;85593.22;;;-4.24;39.31
36514;BME280;66331;46.796;9.824;2023-02-15T03:12:15;85592.14;;;-4.63;40.30
36514;BME280;66331;46.796;9.824;2023-02-15T03:14:48;85589.87;;;-3.99;39.34
36514;BME280;66331;46.796;9.824;2023-02-15T03:17:20;85592.16;;;-6.53;43.13
36514;BME280;66331;46.796;9.824;2023-02-15T03:19:51;85592.45;;;-5.94;41.53
36514;BME280;66331;46.796;9.824;2023-02-15T03:22:25;85590.91;;;-6.07;41.75
36514;BME280;66331;46.796;9.824;2023-02-15T03:24:58;85592.28;;;-6.17;41.50
36514;BME280;66331;46.796;9.824;2023-02-15T03:27:32;85584.47;;;-5.38;40.49
36514;BME280;66331;46.796;9.824;2023-02-15T03:30:00;85585.37;;;-5.75;41.54
36514;BME280;66331;46.796;9.824;2023-02-15T03:32:29;85587.10;;;-5.13;40.74
36514;BME280;66331;46.796;9.824;2023-02-15T03:34:58;85589.68;;;-6.26;41.92
36514;BME280;66331;46.796;9.824;2023-02-15T03:37:28;85586.35;;;-5.59;41.08
36514;BME280;66331;46.796;9.824;2023-02-15T03:40:02;85586.53;;;-5.55;42.24
36514;BME280;66331;46.796;9.824;2023-02-15T03:42:33;85588.26;;;-5.39;41.08
36514;BME280;66331;46.796;9.824;2023-02-15T03:45:05;85590.78;;;-6.14;41.81
36514;BME280;66331;46.796;9.824;2023-02-15T03:47:37;85588.45;;;-5.77;41.30
36514;BME280;66331;46.796;9.824;2023-02-15T03:50:09;85588.76;;;-6.06;41.70
36514;BME280;66331;46.796;9.824;2023-02-15T03:52:37;85587.91;;;-6.32;42.49
36514;BME280;66331;46.796;9.824;2023-02-15T03:55:05;85582.26;;;-5.61;41.01
36514;BME280;66331;46.796;9.824;2023-02-15T03:57:35;85585.67;;;-6.19;42.09
36514;BME280;66331;46.796;9.824;2023-02-15T04:00:09;85584.42;;;-5.88;41.40
36514;BME280;66331;46.796;9.824;2023-02-15T04:02:40;85582.91;;;-5.78;41.25
36514;BME280;66331;46.796;9.824;2023-02-15T04:05:09;85580.93;;;-4.87;39.76
36514;BME280;66331;46.796;9.824;2023-02-15T04:07:36;85585.20;;;-5.21;40.36
36514;BME280;66331;46.796;9.824;2023-02-15T04:10:04;85588.49;;;-5.91;40.85
36514;BME280;66331;46.796;9.824;2023-02-15T04:12:31;85585.37;;;-4.75;39.48
36514;BME280;66331;46.796;9.824;2023-02-15T04:14:59;85587.20;;;-4.77;39.86
36514;BME280;66331;46.796;9.824;2023-02-15T04:17:26;85592.86;;;-5.89;41.74
36514;BME280;66331;46.796;9.824;2023-02-15T04:19:53;85589.57;;;-5.17;40.75
36514;BME280;66331;46.796;9.824;2023-02-15T04:22:20;85588.54;;;-5.35;40.33
36514;BME280;66331;46.796;9.824;2023-02-15T04:24:47;85587.33;;;-5.69;40.55
36514;BME280;66331;46.796;9.824;2023-02-15T04:27:14;85586.99;;;-5.88;41.21
36514;BME280;66331;46.796;9.824;2023-02-15T04:29:41;85586.20;;;-5.61;40.96
36514;BME280;66331;46.796;9.824;2023-02-15T04:32:09;85586.18;;;-5.65;40.07
36514;BME280;66331;46.796;9.824;2023-02-15T04:34:36;85585.88;;;-5.42;40.01
36514;BME280;66331;46.796;9.824;2023-02-15T04:37:03;85591.38;;;-6.10;41.83
36514;BME280;66331;46.796;9.824;2023-02-15T04:39:30;85589.03;;;-5.63;40.73
36514;BME280;66331;46.796;9.824;2023-02-15T04:41:58;85584.26;;;-5.34;40.65
36514;BME280;66331;46.796;9.824;2023-02-15T04:44:25;85582.96;;;-6.12;40.87
36514;BME280;66331;46.796;9.824;2023-02-15T04:46:53;85581.70;;;-6.00;41.06
36514;BME280;66331;46.796;9.824;2023-02-15T04:49:20;85579.26;;;-5.94;41.01
36514;BME280;66331;46.796;9.824;2023-02-15T04:51:47;85578.54;;;-5.85;41.09
36514;BME280;66331;46.796;9.824;2023-02-15T04:54:14;85577.64;;;-5.96;41.50
36514;BME280;66331;46.796;9.824;2023-02-15T04:56:42;85578.50;;;-5.06;39.91
36514;BME280;66331;46.796;9.824;2023-02-15T04:59:10;85576.08;;;-5.57;41.41
36514;BME280;66331;46.796;9.824;2023-02-15T05:01:38;85574.97;;;-5.29;41.03
36514;BME280;66331;46.796;9.824;2023-02-15T05:04:05;85575.49;;;-5.58;41.28
36514;BME280;66331;46.796;9.824;2023-02-15T05:06:32;85576.52;;;-5.25;40.25
36514;BME280;66331;46.796;9.824;2023-02-15T05:09:00;85577.71;;;-6.29;40.87
36514;BME280;66331;46.796;9.824;2023-02-15T05:11:27;85576.09;;;-6.24;40.91
36514;BME280;66331;46.796;9.824;2023-02-15T05:13:54;85572.78;;;-6.57;41.80
36514;BME280;66331;46.796;9.824;2023-02-15T05:16:21;85572.94;;;-5.96;41.25
36514;BME280;66331;46.796;9.824;2023-02-15T05:18:48;85575.29;;;-6.19;41.70
36514;BME280;66331;46.796;9.824;2023-02-15T05:21:15;85570.46;;;-5.66;40.64
36514;BME280;66331;46.796;9.824;2023-02-15T05:23:42;85569.34;;;-5.97;40.90
36514;BME280;66331;46.796;9.824;2023-02-15T05:26:10;85568.98;;;-5.86;40.82
36514;BME280;66331;46.796;9.824;2023-02-15T05:28:38;85569.18;;;-5.77;40.69
36514;BME280;66331;46.796;9.824;2023-02-15T05:31:07;85571.65;;;-6.09;41.18
36514;BME280;66331;46.796;9.824;2023-02-15T05:33:35;85570.29;;;-5.93;40.95
36514;BME280;66331;46.796;9.824;2023-02-15T05:36:03;85564.81;;;-5.36;40.12
36514;BME280;66331;46.796;9.824;2023-02-15T05:38:31;85568.97;;;-6.34;42.01
36514;BME280;66331;46.796;9.824;2023-02-15T05:40:58;85564.69;;;-7.11;42.61
36514;BME280;66331;46.796;9.824;2023-02-15T05:43:26;85569.09;;;-6.27;41.22
36514;BME280;66331;46.796;9.824;2023-02-15T05:45:54;85566.56;;;-7.14;43.37
36514;BME280;66331;46.796;9.824;2023-02-15T05:48:23;85565.47;;;-6.70;42.47
36514;BME280;66331;46.796;9.824;2023-02-15T05:50:58;85568.15;;;-6.01;41.02
36514;BME280;66331;46.796;9.824;2023-02-15T05:53:25;85566.41;;;-6.63;42.25
36514;BME280;66331;46.796;9.824;2023-02-15T05:55:54;85565.54;;;-6.27;41.43
36514;BME280;66331;46.796;9.824;2023-02-15T05:58:21;85568.96;;;-7.01;42.49
36514;BME280;66331;46.796;9.824;2023-02-15T06:00:48;85568.01;;;-6.49;42.15
36514;BME280;66331;46.796;9.824;2023-02-15T06:03:15;85567.82;;;-6.61;42.51
36514;BME280;66331;46.796;9.824;2023-02-15T06:05:42;85570.10;;;-6.02;41.97
36514;BME280;66331;46.796;9.824;2023-02-15T06:08:09;85566.05;;;-5.51;40.47
36514;BME280;66331;46.796;9.824;2023-02-15T06:10:37;85571.69;;;-6.66;42.08
36514;BME280;66331;46.796;9.824;2023-02-15T06:13:04;85568.75;;;-6.42;41.51
36514;BME280;66331;46.796;9.824;2023-02-15T06:15:31;85565.29;;;-5.90;40.96
36514;BME280;66331;46.796;9.824;2023-02-15T06:17:58;85564.70;;;-5.61;40.57
36514;BME280;66331;46.796;9.824;2023-02-15T06:20:26;85571.60;;;-6.06;41.83
36514;BME280;66331;46.796;9.824;2023-02-15T06:22:53;85571.16;;;-5.61;40.75
36514;BME280;66331;46.796;9.824;2023-02-15T06:25:20;85575.80;;;-6.76;42.25
36514;BME280;66331;46.796;9.824;2023-02-15T06:27:47;85579.45;;;-5.82;40.82
36514;BME280;66331;46.796;9.824;2023-02-15T06:30:15;85582.83;;;-7.29;42.58
36514;BME280;66331;46.796;9.824;2023-02-15T06:32:42;85583.68;;;-7.18;43.41
36514;BME280;66331;46.796;9.824;2023-02-15T06:35:09;85583.35;;;-5.62;40.96
36514;BME280;66331;46.796;9.824;2023-02-15T06:37:37;85584.43;;;-5.40;41.33
36514;BME280;66331;46.796;9.824;2023-02-15T06:40:05;85587.46;;;-5.98;41.79
36514;BME280;66331;46.796;9.824;2023-02-15T06:42:33;85583.76;;;-5.43;39.76
36514;BME280;66331;46.796;9.824;2023-02-15T06:45:00;85587.22;;;-5.94;40.55
36514;BME280;66331;46.796;9.824;2023-02-15T06:47:27;85585.89;;;-5.97;40.80
36514;BME280;66331;46.796;9.824;2023-02-15T06:49:54;85587.75;;;-5.49;39.71
36514;BME280;66331;46.796;9.824;2023-02-15T06:52:22;85591.51;;;-6.87;42.70
36514;BME280;66331;46.796;9.824;2023-02-15T06:54:49;85591.39;;;-6.12;41.28
36514;BME280;66331;46.796;9.824;2023-02-15T06:57:17;85586.42;;;-5.56;40.47
36514;BME280;66331;46.796;9.824;2023-02-15T06:59:44;85591.17;;;-6.63;42.26
36514;BME280;66331;46.796;9.824;2023-02-15T07:02:12;85590.30;;;-5.90;41.56
36514;BME280;66331;46.796;9.824;2023-02-15T07:04:39;85585.72;;;-5.52;40.67
36514;BME280;66331;46.796;9.824;2023-02-15T07:07:10;85588.23;;;-5.76;41.10
36514;BME280;66331;46.796;9.824;2023-02-15T07:09:38;85590.00;;;-6.12;42.49
36514;BME280;66331;46.796;9.824;2023-02-15T07:12:06;85592.00;;;-6.30;41.72
36514;BME280;66331;46.796;9.824;2023-02-15T07:14:33;85585.52;;;-5.51;40.11
36514;BME280;66331;46.796;9.824;2023-02-15T07:17:00;85590.24;;;-6.33;40.26
36514;BME280;66331;46.796;9.824;2023-02-15T07:19:29;85585.26;;;-6.80;41.86
36514;BME280;66331;46.796;9.824;2023-02-15T07:21:56;85589.24;;;-6.98;42.73
36514;BME280;66331;46.796;9.824;2023-02-15T07:24:25;85586.18;;;-6.53;42.10
36514;BME280;66331;46.796;9.824;2023-02-15T07:27:02;85584.51;;;-5.97;41.22
36514;BME280;66331;46.796;9.824;2023-02-15T07:29:30;85583.84;;;-6.21;41.96
36514;BME280;66331;46.796;9.824;2023-02-15T07:31:57;85583.45;;;-5.30;40.57
36514;BME280;66331;46.796;9.824;2023-02-15T07:34:25;85588.52;;;-6.87;42.82
36514;BME280;66331;46.796;9.824;2023-02-15T07:36:52;85585.55;;;-5.90;41.64
36514;BME280;66331;46.796;9.824;2023-02-15T07:39:20;85578.28;;;-5.77;40.92
36514;BME280;66331;46.796;9.824;2023-02-15T07:41:47;85577.35;;;-5.24;40.22
36514;BME280;66331;46.796;9.824;2023-02-15T07:44:14;85573.78;;;-5.19;40.03
36514;BME280;66331;46.796;9.824;2023-02-15T07:46:42;85574.67;;;-6.26;41.38
36514;BME280;66331;46.796;9.824;2023-02-15T07:49:09;85572.65;;;-5.78;40.80
36514;BME280;66331;46.796;9.824;2023-02-15T07:51:36;85573.90;;;-6.01;41.32
36514;BME280;66331;46.796;9.824;2023-02-15T07:54:04;85568.90;;;-5.34;40.14
36514;BME280;66331;46.796;9.824;2023-02-15T07:56:31;85569.79;;;-5.22;40.45
36514;BME280;66331;46.796;9.824;2023-02-15T07:58:59;85570.70;;;-4.93;39.79
36514;BME280;66331;46.796;9.824;2023-02-15T08:01:35;85567.06;;;-6.08;41.28
36514;BME280;66331;46.796;9.824;2023-02-15T08:04:04;85564.68;;;-5.56;40.90
36514;BME280;66331;46.796;9.824;2023-02-15T08:06:40;85562.43;;;-5.40;40.54
36514;BME280;66331;46.796;9.824;2023-02-15T08:09:08;85558.10;;;-4.88;39.84
36514;BME280;66331;46.796;9.824;2023-02-15T08:11:37;85556.63;;;-5.15;40.58
36514;BME280;66331;46.796;9.824;2023-02-15T08:14:06;85555.20;;;-5.72;40.50
36514;BME280;66331;46.796;9.824;2023-02-15T08:16:35;85552.87;;;-5.06;40.30
36514;BME280;66331;46.796;9.824;2023-02-15T08:19:04;85554.27;;;-5.54;41.05
36514;BME280;66331;46.796;9.824;2023-02-15T08:21:34;85556.27;;;-5.41;40.29
36514;BME280;66331;46.796;9.824;2023-02-15T08:24:02;85552.63;;;-5.50;39.96
36514;BME280;66331;46.796;9.824;2023-02-15T08:26:30;85554.21;;;-4.89;39.83
36514;BME280;66331;46.796;9.824;2023-02-15T08:29:02;85550.20;;;-4.88;39.90
36514;BME280;66331;46.796;9.824;2023-02-15T08:31:29;85549.00;;;-5.03;40.04
36514;BME280;66331;46.796;9.824;2023-02-15T08:33:57;85547.39;;;-4.97;40.68
36514;BME280;66331;46.796;9.824;2023-02-15T08:36:26;85546.33;;;-5.07;41.04
36514;BME280;66331;46.796;9.824;2023-02-15T08:38:56;85546.48;;;-4.05;38.95
36514;BME280;66331;46.796;9.824;2023-02-15T08:41:31;85547.92;;;-4.56;39.32
36514;BME280;66331;46.796;9.824;2023-02-15T08:44:01;85549.90;;;-4.77;39.46
36514;BME280;66331;46.796;9.824;2023-02-15T08:46:32;85547.13;;;-4.37;39.04
36514;BME280;66331;46.796;9.824;2023-02-15T08:49:00;85549.07;;;-4.14;38.99
36514;BME280;66331;46.796;9.824;2023-02-15T08:51:29;85548.32;;;-4.47;39.75
36514;BME280;66331;46.796;9.824;2023-02-15T08:53:59;85546.19;;;-3.68;38.74
36514;BME280;66331;46.796;9.824;2023-02-15T08:56:29;85543.62;;;-3.62;38.22
36514;BME280;66331;46.796;9.824;2023-02-15T08:58:58;85539.90;;;-3.06;37.35
36514;BME280;66331;46.796;9.824;2023-02-15T09:01:29;85534.12;;;-2.20;36.76
36514;BME280;66331;46.796;9.824;2023-02-15T09:03:57;85532.35;;;-2.73;37.01
36514;BME280;66331;46.796;9.824;2023-02-15T09:06:26;85530.61;;;-2.92;37.44
36514;BME280;66331;46.796;9.824;2023-02-15T09:08:54;85529.16;;;-2.18;35.67
36514;BME280;66331;46.796;9.824;2023-02-15T09:11:23;85527.76;;;-2.08;35.39
36514;BME280;66331;46.796;9.824;2023-02-15T09:13:53;85528.10;;;-2.01;35.81
36514;BME280;66331;46.796;9.824;2023-02-15T09:16:21;85526.07;;;-1.64;35.25
36514;BME280;66331;46.796;9.824;2023-02-15T09:18:49;85519.26;;;-0.98;34.28
36514;BME280;66331;46.796;9.824;2023-02-15T09:21:19;85517.47;;;-0.87;33.65
36514;BME280;66331;46.796;9.824;2023-02-15T09:23:49;85517.13;;;-0.27;33.47
36514;BME280;66331;46.796;9.824;2023-02-15T09:26:18;85515.75;;;-0.13;32.85
36514;BME280;66331;46.796;9.824;2023-02-15T09:28:46;85513.37;;;-0.23;32.38
36514;BME280;66331;46.796;9.824;2023-02-15T09:31:15;85514.97;;;0.44;31.71
36514;BME280;66331;46.796;9.824;2023-02-15T09:33:44;85516.60;;;0.66;30.93
36514;BME280;66331;46.796;9.824;2023-02-15T09:36:16;85519.92;;;0.47;31.46
36514;BME280;66331;46.796;9.824;2023-02-15T09:38:43;85516.98;;;0.74;31.30
36514;BME280;66331;46.796;9.824;2023-02-15T09:41:25;85518.17;;;0.91;30.69
36514;BME280;66331;46.796;9.824;2023-02-15T09:44:06;85517.01;;;1.02;30.65
36514;BME280;66331;46.796;9.824;2023-02-15T09:46:47;85517.03;;;1.12;32.12
36514;BME280;66331;46.796;9.824;2023-02-15T09:49:27;85516.12;;;0.45;32.24
36514;BME280;66331;46.796;9.824;2023-02-15T09:52:13;85512.98;;;1.48;31.03
36514;BME280;66331;46.796;9.824;2023-02-15T09:54:55;85515.29;;;1.23;30.06
36514;BME280;66331;46.796;9.824;2023-02-15T09:57:32;85511.37;;;1.18;29.43
36514;BME280;66331;46.796;9.824;2023-02-15T10:00:09;85510.41;;;1.13;29.26
36514;BME280;66331;46.796;9.824;2023-02-15T10:02:54;85509.07;;;2.02;29.01
36514;BME280;66331;46.796;9.824;2023-02-15T10:05:31;85510.35;;;2.20;28.99
36514;BME280;66331;46.796;9.824;2023-02-15T10:08:29;85503.43;;;1.80;28.86
36514;BME280;66331;46.796;9.824;2023-02-15T10:11:08;85503.68;;;2.33;28.45
36514;BME280;66331;46.796;9.824;2023-02-15T10:13:44;85502.79;;;2.46;27.82
36514;BME280;66331;46.796;9.824;2023-02-15T10:16:22;85499.16;;;2.63;27.66
36514;BME280;66331;46.796;9.824;2023-02-15T10:18:59;85500.14;;;2.91;26.96
36514;BME280;66331;46.796;9.824;2023-02-15T10:21:39;85497.26;;;2.46;27.41
36514;BME280;66331;46.796;9.824;2023-02-15T10:24:29;85495.97;;;2.92;26.38
36514;BME280;66331;46.796;9.824;2023-02-15T10:27:03;85491.58;;;3.09;26.61
36514;BME280;66331;46.796;9.824;2023-02-15T10:29:35;85493.67;;;3.21;25.92
36514;BME280;66331;46.796;9.824;2023-02-15T10:32:14;85492.53;;;3.17;26.28
36514;BME280;66331;46.796;9.824;2023-02-15T10:34:49;85488.88;;;3.03;26.30
36514;BME280;66331;46.796;9.824;2023-02-15T10:38:04;85485.63;;;3.55;25.54
36514;BME280;66331;46.796;9.824;2023-02-15T10:40:40;85481.66;;;3.85;25.08
36514;BME280;66331;46.796;9.824;2023-02-15T10:43:21;85478.07;;;4.57;24.14
36514;BME280;66331;46.796;9.824;2023-02-15T10:46:00;85477.39;;;4.68;24.57
36514;BME280;66331;46.796;9.824;2023-02-15T10:48:40;85476.55;;;4.80;24.44
36514;BME280;66331;46.796;9.824;2023-02-15T10:51:18;85476.91;;;3.97;24.16
36514;BME280;66331;46.796;9.824;2023-02-15T10:54:00;85473.98;;;4.03;23.91
36514;BME280;66331;46.796;9.824;2023-02-15T10:56:35;85470.79;;;4.38;23.60
36514;BME280;66331;46.796;9.824;2023-02-15T10:59:15;85466.51;;;4.42;23.26
36514;BME280;66331;46.796;9.824;2023-02-15T11:01:49;85463.67;;;4.47;22.90
36514;BME280;66331;46.796;9.824;2023-02-15T11:04:41;85459.32;;;4.35;22.56
36514;BME280;66331;46.796;9.824;2023-02-15T11:07:16;85458.29;;;4.53;21.92
36514;BME280;66331;46.796;9.824;2023-02-15T11:09:48;85453.03;;;5.42;21.59
36514;BME280;66331;46.796;9.824;2023-02-15T11:12:19;85448.19;;;5.69;21.22
36514;BME280;66331;46.796;9.824;2023-02-15T11:14:50;85445.81;;;6.09;21.08
36514;BME280;66331;46.796;9.824;2023-02-15T11:17:23;85442.37;;;5.97;21.28
36514;BME280;66331;46.796;9.824;2023-02-15T11:19:58;85439.98;;;6.28;20.48
36514;BME280;66331;46.796;9.824;2023-02-15T11:22:26;85436.34;;;6.51;20.33
36514;BME280;66331;46.796;9.824;2023-02-15T11:24:54;85434.53;;;6.62;20.35
36514;BME280;66331;46.796;9.824;2023-02-15T11:27:25;85428.88;;;6.59;21.24
36514;BME280;66331;46.796;9.824;2023-02-15T11:29:58;85427.75;;;6.52;22.16
36514;BME280;66331;46.796;9.824;2023-02-15T11:32:28;85424.71;;;6.00;22.26
36514;BME280;66331;46.796;9.824;2023-02-15T11:35:02;85423.32;;;6.02;21.88
36514;BME280;66331;46.796;9.824;2023-02-15T11:37:36;85419.61;;;6.54;21.70
36514;BME280;66331;46.796;9.824;2023-02-15T11:40:17;85416.61;;;6.21;21.13
36514;BME280;66331;46.796;9.824;2023-02-15T11:42:46;85408.57;;;6.45;19.96
36514;BME280;66331;46.796;9.824;2023-02-15T11:45:22;85406.37;;;6.66;20.16
36514;BME280;66331;46.796;9.824;2023-02-15T11:47:52;85404.64;;;6.69;20.40
36514;BME280;66331;46.796;9.824;2023-02-15T11:50:23;85404.24;;;7.77;21.71
36514;BME280;66331;46.796;9.824;2023-02-15T11:52:52;85401.63;;;7.46;21.40
36514;BME280;66331;46.796;9.824;2023-02-15T11:55:23;85398.08;;;6.98;21.37
36514;BME280;66331;46.796;9.824;2023-02-15T11:57:54;85401.22;;;6.95;21.23
36514;BME280;66331;46.796;9.824;2023-02-15T12:00:31;85394.96;;;7.52;20.76
36514;BME280;66331;46.796;9.824;2023-02-15T12:02:59;85390.58;;;6.95;20.67
36514;BME280;66331;46.796;9.824;2023-02-15T12:05:29;85388.01;;;7.23;20.35
36514;BME280;66331;46.796;9.824;2023-02-15T12:08:01;85385.18;;;6.52;20.04
36514;BME280;66331;46.796;9.824;2023-02-15T12:10:33;85386.12;;;7.35;18.95
36514;BME280;66331;46.796;9.824;2023-02-15T12:13:12;85381.75;;;7.16;20.02
36514;BME280;66331;46.796;9.824;2023-02-15T12:15:41;85381.76;;;7.99;21.29
36514;BME280;66331;46.796;9.824;2023-02-15T12:18:19;85379.41;;;7.62;21.61
36514;BME280;66331;46.796;9.824;2023-02-15T12:20:47;85375.40;;;7.48;22.27
36514;BME280;66331;46.796;9.824;2023-02-15T12:23:17;85374.46;;;7.77;21.46
36514;BME280;66331;46.796;9.824;2023-02-15T12:25:51;85373.93;;;7.24;21.53
36514;BME280;66331;46.796;9.824;2023-02-15T12:28:24;85373.66;;;7.47;20.17
36514;BME280;66331;46.796;9.824;2023-02-15T12:30:53;85369.07;;;8.01;19.16
36514;BME280;66331;46.796;9.824;2023-02-15T12:33:26;85365.55;;;8.11;19.49
36514;BME280;66331;46.796;9.824;2023-02-15T12:35:59;85364.90;;;8.14;20.67
36514;BME280;66331;46.796;9.824;2023-02-15T12:38:28;85360.42;;;8.12;21.15
36514;BME280;66331;46.796;9.824;2023-02-15T12:40:58;85362.72;;;7.94;20.66
36514;BME280;66331;46.796;9.824;2023-02-15T12:43:27;85360.08;;;7.92;20.71
36514;BME280;66331;46.796;9.824;2023-02-15T12:46:14;85356.88;;;8.20;20.11
36514;BME280;66331;46.796;9.824;2023-02-15T12:48:45;85354.12;;;8.30;19.71
36514;BME280;66331;46.796;9.824;2023-02-15T12:51:14;85353.62;;;8.16;19.96
36514;BME280;66331;46.796;9.824;2023-02-15T12:53:41;85347.40;;;8.68;20.30
36514;BME280;66331;46.796;9.824;2023-02-15T12:56:10;85349.39;;;8.67;19.36
36514;BME280;66331;46.796;9.824;2023-02-15T12:58:38;85346.29;;;8.39;20.48
36514;BME280;66331;46.796;9.824;2023-02-15T13:01:15;85343.46;;;8.22;19.95
36514;BME280;66331;46.796;9.824;2023-02-15T13:03:56;85341.39;;;8.60;20.26
36514;BME280;66331;46.796;9.824;2023-02-15T13:06:25;85341.21;;;7.99;20.34
36514;BME280;66331;46.796;9.824;2023-02-15T13:08:55;85338.89;;;8.24;20.41
36514;BME280;66331;46.796;9.824;2023-02-15T13:11:27;85334.96;;;8.36;20.11
36514;BME280;66331;46.796;9.824;2023-02-15T13:14:00;85337.07;;;8.49;20.61
36514;BME280;66331;46.796;9.824;2023-02-15T13:16:30;85334.83;;;8.44;20.98
36514;BME280;66331;46.796;9.824;2023-02-15T13:19:05;85334.13;;;8.90;20.72
36514;BME280;66331;46.796;9.824;2023-02-15T13:21:37;85331.85;;;8.65;20.78
36514;BME280;66331;46.796;9.824;2023-02-15T13:24:15;85331.51;;;8.75;20.23